Airfield :
LOGIN :

Register | Disclaimer

   EN    FR    IT 

 










Legend :    VFR   Marginal VFR   IFR   Intensive IFR   Very Intensive IFR
Visi :
Ceiling :
>= 8 km
>= 3000ft
5 to 8 km
1000 to 3000 ft
1500m to 5 km
500 to 1000 ft
800 to 1500m
200 to 500 ft
< 800m
< 200 ft
Symbols :   Thunderstorms  Fog  Heavy snow  Heavy precipitations  Wind > 20 kt
SIGMETs :     Misc.  Thunderstorms  Icing  Turbulence  Mountain Waves  Volcanic Ashes







- Airport Elevation : 821 ft
- IATA code : LYS
- Download approach charts


LFLL - Lyon St Exupéry / Satolas

CURRENT METAR :
  • 240130Z 14008KT 9999 BKN023 07/04 Q1029 NOSIG

EXPIRED METARs :
  • 240100Z 14004KT 9999 BKN023 07/04 Q1029 NOSIG
  • 240030Z VRB02KT 9999 BKN024 08/04 Q1029 NOSIG
  • 240000Z 13004KT 9999 BKN024 08/04 Q1029 NOSIG
  • 232330Z 14006KT 9999 SCT029 BKN035 08/04 Q1029 NOSIG
  • 232300Z 15004KT 9999 FEW027 BKN036 08/04 Q1029 NOSIG

TAF AMD TAF LFLL
Valid from the 24 at 01:00 until the 25 at 06:00 UTC


240130Z 2401/2506 16003KT 9999 OVC025
PROB30
TEMPO 2403/2408 0600 BCFG
BECMG 2410/2412 18013KT CAVOK
TEMPO 2413/2506 18015G25KT
PROB40
TEMPO 2416/2424 19020G35KT
No reported NOTAMs for that airfield.



MET'MAP, your aeronautical weather chart ! - Copyright ORBIFLY December 2007 - Disclaimer

ORBIFLY MET'MAP TEAM :

Programming & Development : Alexandra Zaïnal
Concept & Development : Baudouin d'Aumeries
Co-Development & Prog : Marc-Olivier Méhu
Technical & hardware support : Manuel Goepfert

Contact : metmap@orbifly.com




SOURCES & CREDITS :

   NOAA